Time;durP1;ratioP1;P1;durP2;ratioP2;P2;SDS_P1;SDS_P2;PMS_P1;PMS_P2;Temp;Humidity;BMP_temperature;BMP_pressure;BME280_temperature;BME280_humidity;BME280_pressure;Samples;Min_cycle;Max_cycle;Signal;HPM_P1;HPM_P2
2023/03/25 00:02:15;;;;;;;2.75;1.15;;;;;;;20.80;38.87;99905.50;5046170;28;20441;-69
2023/03/25 00:04:41;;;;;;;1.08;0.52;;;;;;;20.82;38.78;99906.13;5043612;28;20037;-70
2023/03/25 00:07:06;;;;;;;1.45;0.63;;;;;;;20.70;38.99;99897.22;5039926;28;20044;-70
2023/03/25 00:09:32;;;;;;;1.67;0.93;;;;;;;20.73;39.01;99912.66;5042306;28;20033;-69
2023/03/25 00:11:57;;;;;;;1.30;0.85;;;;;;;20.78;38.96;99904.91;5038069;28;20044;-69
2023/03/25 00:14:25;;;;;;;2.95;1.13;;;;;;;20.80;38.65;99910.81;5041121;28;20045;-69
2023/03/25 00:16:51;;;;;;;2.08;1.00;;;;;;;20.71;38.98;99907.59;5038201;28;20148;-69
2023/03/25 00:19:20;;;;;;;0.90;0.75;;;;;;;20.77;38.95;99909.41;5033780;28;20976;-69
2023/03/25 00:21:49;;;;;;;1.63;0.85;;;;;;;20.80;38.65;99911.63;5038891;28;20117;-69
2023/03/25 00:24:18;;;;;;;1.20;0.85;;;;;;;20.78;38.88;99911.00;5038190;28;20111;-69
2023/03/25 00:26:45;;;;;;;1.13;0.80;;;;;;;20.76;38.84;99904.31;5041846;28;20044;-69
2023/03/25 00:29:12;;;;;;;1.95;1.00;;;;;;;20.77;38.89;99908.56;5042102;28;20040;-70
2023/03/25 00:31:39;;;;;;;2.90;1.08;;;;;;;20.70;38.93;99908.59;5044686;28;20038;-69
2023/03/25 00:34:04;;;;;;;1.48;0.65;;;;;;;20.77;38.80;99903.28;5039397;28;20068;-69
2023/03/25 00:36:30;;;;;;;2.08;0.88;;;;;;;20.73;39.03;99907.38;5041101;28;20045;-69
2023/03/25 00:38:55;;;;;;;1.05;0.77;;;;;;;20.67;39.04;99903.75;5042665;28;20083;-69
2023/03/25 00:41:26;;;;;;;1.30;0.80;;;;;;;20.66;39.06;99898.66;5043832;28;20067;-69
2023/03/25 00:43:54;;;;;;;2.58;1.27;;;;;;;20.72;38.99;99897.81;5036901;28;20192;-69
2023/03/25 00:46:21;;;;;;;1.60;0.65;;;;;;;20.66;39.00;99904.75;5031337;28;20076;-69
2023/03/25 00:48:48;;;;;;;1.63;0.68;;;;;;;20.69;38.92;99917.56;5038718;28;20048;-69
2023/03/25 00:51:18;;;;;;;2.58;0.90;;;;;;;20.65;39.04;99900.50;5037024;28;20090;-70
2023/03/25 00:53:45;;;;;;;1.55;0.60;;;;;;;20.60;39.06;99902.91;5034394;28;20073;-69
2023/03/25 00:56:13;;;;;;;2.17;0.88;;;;;;;20.61;39.07;99904.53;5036312;28;20048;-69
2023/03/25 00:58:39;;;;;;;1.27;1.00;;;;;;;20.63;38.99;99902.50;5041897;28;20053;-69
2023/03/25 01:01:15;;;;;;;0.93;0.70;;;;;;;20.57;39.04;99894.59;5039297;28;20034;-69
2023/03/25 01:03:45;;;;;;;1.63;0.80;;;;;;;20.50;39.14;99894.63;5042132;28;20041;-69
2023/03/25 01:06:13;;;;;;;3.25;0.95;;;;;;;20.60;39.13;99910.03;5040617;28;20051;-69
2023/03/25 01:08:40;;;;;;;0.85;0.77;;;;;;;20.60;39.13;99908.22;5036546;28;20129;-69
2023/03/25 01:11:19;;;;;;;2.53;0.80;;;;;;;20.65;39.06;99915.56;5068028;28;20136;-69
2023/03/25 01:13:45;;;;;;;1.67;1.00;;;;;;;20.60;39.12;99910.84;5037702;28;20037;-69
2023/03/25 01:16:11;;;;;;;1.83;0.75;;;;;;;20.54;39.04;99906.41;5038366;28;20067;-69
2023/03/25 01:18:37;;;;;;;3.00;1.17;;;;;;;20.43;39.10;99896.44;5036186;28;20076;-70
2023/03/25 01:21:07;;;;;;;1.92;0.73;;;;;;;20.58;39.14;99904.97;5041454;28;20083;-69
2023/03/25 01:23:33;;;;;;;;;;;;;;;20.52;39.25;99890.75;5041552;28;20061;-70
2023/03/25 01:25:59;;;;;;;3.63;0.90;;;;;;;20.55;39.05;99896.63;5042723;28;20379;-69
2023/03/25 01:28:26;;;;;;;1.80;1.10;;;;;;;20.48;39.33;99894.81;5045866;28;20033;-69
2023/03/25 01:31:00;;;;;;;1.33;0.85;;;;;;;20.45;39.30;99891.75;5048609;28;20456;-69
2023/03/25 01:33:26;;;;;;;2.30;1.13;;;;;;;20.45;39.30;99889.91;5042154;28;20045;-69
2023/03/25 01:35:51;;;;;;;2.10;0.80;;;;;;;20.56;38.84;99895.63;5055857;28;20089;-69
2023/03/25 01:38:17;;;;;;;2.88;0.77;;;;;;;20.49;39.29;99895.63;5051214;28;20041;-69
2023/03/25 01:40:45;;;;;;;1.48;0.85;;;;;;;20.48;39.29;99900.13;5050469;28;20056;-69
2023/03/25 01:43:12;;;;;;;1.55;0.70;;;;;;;20.46;39.36;99896.03;5049332;28;20067;-69
2023/03/25 01:45:38;;;;;;;1.60;0.80;;;;;;;20.46;39.28;99882.81;5046800;28;20044;-70
2023/03/25 01:48:14;;;;;;;1.73;0.95;;;;;;;20.45;39.16;99889.13;5043853;28;20120;-69
2023/03/25 01:50:43;;;;;;;1.85;1.08;;;;;;;20.30;39.63;99868.19;5050792;28;20115;-70
2023/03/25 01:53:09;;;;;;;2.30;1.00;;;;;;;20.45;39.33;99891.75;5053801;28;20081;-70
2023/03/25 01:55:37;;;;;;;1.85;0.80;;;;;;;20.40;39.43;99883.59;5044422;28;20049;-69
2023/03/25 01:58:09;;;;;;;1.80;1.10;;;;;;;20.43;39.28;99884.03;5043080;28;20036;-69
2023/03/25 02:00:36;;;;;;;1.42;0.88;;;;;;;20.38;39.27;99880.34;5048255;28;20090;-70
2023/03/25 02:03:02;;;;;;;0.50;0.50;;;;;;;20.37;39.32;99866.31;5043986;28;20044;-70
2023/03/25 02:05:38;;;;;;;1.05;0.85;;;;;;;20.40;39.26;99867.75;5035937;28;20095;-70
2023/03/25 02:08:04;;;;;;;3.85;1.48;;;;;;;20.46;39.24;99874.88;5040233;28;20033;-70
2023/03/25 02:10:31;;;;;;;1.63;0.93;;;;;;;20.47;39.23;99876.53;5035284;28;20485;-69
2023/03/25 02:12:58;;;;;;;1.23;0.50;;;;;;;20.45;39.37;99879.34;5043887;28;20033;-69
2023/03/25 02:15:23;;;;;;;1.88;1.08;;;;;;;20.40;39.40;99873.03;5043450;28;20044;-69
2023/03/25 02:17:49;;;;;;;1.65;0.73;;;;;;;20.40;39.42;99873.03;5047119;28;20099;-69
2023/03/25 02:20:17;;;;;;;1.58;0.77;;;;;;;20.37;39.45;99876.91;5051807;28;20135;-69
2023/03/25 02:23:01;;;;;;;0.90;0.60;;;;;;;20.38;39.51;99875.88;5045315;28;20064;-69
2023/03/25 02:26:05;;;;;;;2.13;1.17;;;;;;;20.38;39.38;99872.44;5039714;28;20063;-69
2023/03/25 02:29:12;;;;;;;1.65;0.75;;;;;;;20.37;39.43;99871.63;5037179;28;20063;-70
2023/03/25 02:31:41;;;;;;;1.23;0.60;;;;;;;20.36;39.54;99870.00;5041903;28;20086;-69
2023/03/25 02:34:32;;;;;;;1.63;0.90;;;;;;;20.37;39.42;99873.44;5040714;28;20036;-69
2023/03/25 02:37:16;;;;;;;2.20;0.93;;;;;;;20.40;39.43;99862.44;5040959;28;22023;-69
2023/03/25 02:40:01;;;;;;;1.08;0.68;;;;;;;20.25;39.40;99862.66;5056772;28;20068;-69
2023/03/25 02:43:03;;;;;;;1.42;0.85;;;;;;;20.30;39.66;99872.66;5036488;28;20048;-69
2023/03/25 02:45:34;;;;;;;1.15;0.93;;;;;;;20.37;39.37;99876.09;5021256;28;20104;-70
2023/03/25 02:48:23;;;;;;;0.80;0.65;;;;;;;20.34;39.50;99877.31;5037961;28;20032;-69
2023/03/25 02:50:52;;;;;;;2.00;0.68;;;;;;;20.31;39.54;99867.16;5036023;28;20045;-69
2023/03/25 02:53:26;;;;;;;3.13;1.08;;;;;;;20.21;39.74;99870.22;5039941;28;20453;-69
2023/03/25 02:55:57;;;;;;;2.58;0.90;;;;;;;20.20;39.66;99868.59;5037976;28;20539;-69
2023/03/25 02:58:23;;;;;;;0.93;0.80;;;;;;;20.31;39.33;99874.28;5035518;28;21036;-69
2023/03/25 03:00:50;;;;;;;1.55;0.65;;;;;;;20.27;39.54;99873.84;5037389;28;20041;-69
2023/03/25 03:03:16;;;;;;;2.25;0.90;;;;;;;20.32;39.42;99867.97;5039804;28;20566;-69
2023/03/25 03:05:48;;;;;;;0.95;0.70;;;;;;;20.34;39.37;99855.34;5041513;28;20033;-69
2023/03/25 03:08:25;;;;;;;1.70;0.98;;;;;;;20.22;39.75;99861.25;5042248;28;20088;-69
2023/03/25 03:11:12;;;;;;;1.88;1.15;;;;;;;20.26;39.58;99866.13;5039321;28;20379;-70
2023/03/25 03:14:02;;;;;;;2.70;0.95;;;;;;;20.35;39.43;99857.78;5041512;28;20025;-69
2023/03/25 03:16:54;;;;;;;1.67;0.77;;;;;;;20.25;39.71;99859.22;5039842;28;20107;-69
2023/03/25 03:19:47;;;;;;;0.90;0.70;;;;;;;20.27;39.66;99858.00;5039950;28;20060;-69
2023/03/25 03:22:34;;;;;;;3.58;1.25;;;;;;;20.22;39.64;99863.91;5045830;28;20047;-69
2023/03/25 03:25:16;;;;;;;1.20;1.10;;;;;;;20.19;39.67;99861.66;5032772;28;20046;-69
2023/03/25 03:27:47;;;;;;;0.95;0.80;;;;;;;20.19;39.63;99852.94;5041728;28;20032;-69
2023/03/25 03:30:28;;;;;;;2.15;0.80;;;;;;;20.18;39.64;99853.94;5039781;28;20037;-69
2023/03/25 03:33:24;;;;;;;1.58;1.10;;;;;;;20.12;39.75;99852.94;5040983;28;20053;-69
2023/03/25 03:36:00;;;;;;;1.15;0.85;;;;;;;20.16;39.76;99853.34;5044487;28;20032;-69
2023/03/25 03:38:31;;;;;;;2.42;1.15;;;;;;;20.21;39.58;99848.25;5041833;28;20045;-69
2023/03/25 03:41:00;;;;;;;1.85;0.70;;;;;;;20.20;39.73;99857.19;5049238;28;20048;-69
2023/03/25 03:43:32;;;;;;;1.60;0.90;;;;;;;20.15;39.61;99839.31;5050196;28;20032;-69
2023/03/25 03:46:04;;;;;;;1.60;1.08;;;;;;;20.19;39.70;99848.44;5051146;28;20212;-69
2023/03/25 03:48:49;;;;;;;1.25;0.88;;;;;;;20.23;39.43;99847.03;5046256;28;20041;-69
2023/03/25 03:51:47;;;;;;;2.55;0.85;;;;;;;20.11;39.78;99848.69;5038031;28;20053;-69
2023/03/25 03:54:22;;;;;;;1.52;1.33;;;;;;;20.21;39.51;99846.41;5038017;28;20079;-69
2023/03/25 03:57:07;;;;;;;1.58;0.90;;;;;;;20.13;39.54;99830.78;5042261;28;20075;-70
2023/03/25 03:59:51;;;;;;;2.33;0.55;;;;;;;20.13;39.60;99845.84;5048875;28;20041;-69
2023/03/25 04:02:27;;;;;;;2.25;0.85;;;;;;;20.06;39.84;99835.25;5052289;28;20555;-69
2023/03/25 04:04:53;;;;;;;2.30;1.05;;;;;;;20.09;39.72;99847.22;5043695;28;20155;-70
2023/03/25 04:07:24;;;;;;;1.75;0.90;;;;;;;20.10;39.71;99849.66;5060607;28;20029;-69
2023/03/25 04:09:56;;;;;;;1.83;1.20;;;;;;;20.19;39.50;99845.00;5041457;28;20470;-70
2023/03/25 04:12:22;;;;;;;1.10;0.70;;;;;;;20.18;39.59;99846.03;5042433;28;20352;-69
2023/03/25 04:14:47;;;;;;;2.05;0.90;;;;;;;20.16;39.70;99843.59;5035254;28;20128;-69
2023/03/25 04:17:13;;;;;;;3.40;0.90;;;;;;;20.13;39.66;99844.00;5037905;28;20049;-69
2023/03/25 04:19:38;;;;;;;2.50;1.30;;;;;;;20.09;39.59;99842.75;5038540;28;20044;-69
2023/03/25 04:22:05;;;;;;;1.95;1.10;;;;;;;20.13;39.49;99849.28;5042403;28;20166;-69
2023/03/25 04:24:31;;;;;;;2.72;1.35;;;;;;;20.07;39.71;99852.72;5038921;28;20148;-69
2023/03/25 04:27:02;;;;;;;1.35;0.95;;;;;;;20.12;39.66;99842.38;5040810;28;20044;-69
2023/03/25 04:29:28;;;;;;;2.28;0.88;;;;;;;20.01;39.62;99832.41;5042000;28;20720;-69
2023/03/25 04:31:55;;;;;;;1.58;0.77;;;;;;;20.06;39.77;99850.28;5038017;28;20033;-70
2023/03/25 04:34:21;;;;;;;2.78;0.88;;;;;;;20.12;39.77;99849.50;5040516;28;20166;-69
2023/03/25 04:36:49;;;;;;;1.85;0.80;;;;;;;20.05;39.79;99844.19;5038434;28;20100;-69
2023/03/25 04:39:21;;;;;;;3.55;1.17;;;;;;;20.13;39.85;99846.66;5041063;28;20463;-69
2023/03/25 04:41:52;;;;;;;2.33;0.98;;;;;;;20.07;39.70;99844.00;5035291;28;20120;-70
2023/03/25 04:44:20;;;;;;;3.05;1.23;;;;;;;20.10;39.83;99847.03;5042739;28;20048;-69
2023/03/25 04:46:46;;;;;;;2.53;1.10;;;;;;;20.05;39.75;99852.13;5039429;28;20043;-70
2023/03/25 04:49:20;;;;;;;1.25;1.15;;;;;;;20.04;39.77;99836.47;5038595;28;20041;-69
2023/03/25 04:51:50;;;;;;;1.92;1.00;;;;;;;19.99;39.89;99845.03;5032212;28;20038;-69
2023/03/25 04:54:20;;;;;;;2.85;1.20;;;;;;;20.05;39.84;99848.66;5036763;28;20120;-69
2023/03/25 04:56:48;;;;;;;2.47;1.10;;;;;;;20.06;39.82;99848.47;5040149;28;20041;-69
2023/03/25 04:59:14;;;;;;;1.27;0.70;;;;;;;20.02;39.77;99838.50;5046592;28;20041;-69
2023/03/25 05:01:41;;;;;;;2.42;0.98;;;;;;;20.04;39.75;99834.63;5044061;28;20093;-69
2023/03/25 05:04:11;;;;;;;1.90;0.80;;;;;;;20.14;39.61;99836.88;5043536;28;20041;-69
2023/03/25 05:06:43;;;;;;;1.58;0.80;;;;;;;20.10;39.63;99843.56;5047390;28;20045;-69
2023/03/25 05:09:13;;;;;;;1.42;1.00;;;;;;;20.07;39.55;99836.06;5042011;28;20033;-69
2023/03/25 05:11:40;;;;;;;2.38;1.27;;;;;;;20.00;39.83;99838.72;5044574;28;20528;-69
2023/03/25 05:14:10;;;;;;;1.83;1.23;;;;;;;20.04;39.79;99844.41;5046580;28;20041;-69
2023/03/25 05:16:35;;;;;;;2.67;1.20;;;;;;;20.13;39.58;99844.00;5047906;28;20047;-70
2023/03/25 05:19:02;;;;;;;2.65;0.85;;;;;;;20.01;39.55;99835.06;5043031;28;20041;-69
2023/03/25 05:21:30;;;;;;;2.00;0.90;;;;;;;20.04;39.75;99839.13;5039557;28;21843;-69
2023/03/25 05:23:56;;;;;;;4.15;1.15;;;;;;;20.05;39.64;99846.03;5041342;28;20057;-70
2023/03/25 05:26:23;;;;;;;1.45;0.98;;;;;;;20.02;39.72;99846.44;5042011;28;20072;-69
2023/03/25 05:28:50;;;;;;;2.97;1.00;;;;;;;20.01;39.58;99842.16;5042318;28;20037;-69
2023/03/25 05:31:19;;;;;;;1.88;1.00;;;;;;;20.05;39.69;99843.38;5041029;28;21567;-69
2023/03/25 05:33:44;;;;;;;1.80;1.00;;;;;;;20.02;39.75;99841.97;5043496;28;20044;-70
2023/03/25 05:36:12;;;;;;;2.67;0.95;;;;;;;20.05;39.76;99846.03;5047571;28;20435;-70
2023/03/25 05:38:43;;;;;;;1.52;1.08;;;;;;;19.94;39.79;99836.09;5050673;28;20033;-70
2023/03/25 05:41:15;;;;;;;2.33;1.00;;;;;;;19.99;39.71;99860.06;5058317;28;20490;-69
2023/03/25 05:43:46;;;;;;;1.60;0.93;;;;;;;20.06;39.71;99847.66;5049959;28;20345;-69
2023/03/25 05:46:16;;;;;;;1.25;0.68;;;;;;;20.03;39.69;99856.00;5053840;28;20068;-70
2023/03/25 05:48:43;;;;;;;1.27;0.70;;;;;;;20.02;39.63;99857.81;5041363;28;20052;-69
2023/03/25 05:51:16;;;;;;;1.85;1.13;;;;;;;19.88;40.03;99856.19;5046303;28;20703;-70
2023/03/25 05:53:43;;;;;;;3.35;1.23;;;;;;;19.98;39.81;99864.53;5044600;28;20046;-69
2023/03/25 05:56:10;;;;;;;1.40;0.85;;;;;;;19.95;39.84;99856.22;5050968;28;20067;-70
2023/03/25 05:58:37;;;;;;;1.92;0.95;;;;;;;19.95;39.89;99857.03;5045244;28;20475;-70
2023/03/25 06:01:03;;;;;;;1.65;0.77;;;;;;;19.99;39.78;99854.78;5042649;28;20155;-70
2023/03/25 06:03:29;;;;;;;1.98;1.02;;;;;;;19.89;39.88;99849.88;5050693;28;20053;-69
2023/03/25 06:05:55;;;;;;;2.72;1.15;;;;;;;19.95;40.00;99854.38;5045058;28;20037;-69
2023/03/25 06:08:24;;;;;;;1.70;0.82;;;;;;;19.94;39.77;99852.75;5034764;28;20410;-69
2023/03/25 06:10:57;;;;;;;2.88;1.30;;;;;;;19.83;39.80;99835.66;5041571;28;20047;-69
2023/03/25 06:13:24;;;;;;;1.70;0.85;;;;;;;19.88;39.93;99850.91;5042017;28;20055;-69
2023/03/25 06:15:54;;;;;;;1.65;0.88;;;;;;;19.91;39.87;99853.13;5043970;28;20110;-70
2023/03/25 06:18:23;;;;;;;1.63;0.98;;;;;;;19.77;39.75;99817.19;5043786;28;20048;-69
2023/03/25 06:20:50;;;;;;;1.77;1.10;;;;;;;20.02;39.71;99849.91;5043259;28;20064;-69
2023/03/25 06:23:16;;;;;;;2.28;1.05;;;;;;;19.97;39.77;99846.25;5041435;28;20058;-69
2023/03/25 06:25:42;;;;;;;1.92;1.10;;;;;;;19.95;39.83;99850.94;5040279;28;20047;-70
2023/03/25 06:28:07;;;;;;;3.05;1.30;;;;;;;19.88;40.01;99857.00;5044569;28;20037;-69
2023/03/25 06:30:33;;;;;;;2.63;1.25;;;;;;;19.92;39.83;99858.22;5042735;28;20767;-69
2023/03/25 06:33:01;;;;;;;2.38;1.20;;;;;;;19.95;39.83;99859.66;5040060;28;20049;-69
2023/03/25 06:35:27;;;;;;;1.55;1.02;;;;;;;19.88;40.16;99856.19;5044706;28;20045;-69
2023/03/25 06:37:53;;;;;;;1.75;0.90;;;;;;;19.97;39.75;99864.75;5039584;28;20044;-69
2023/03/25 06:40:27;;;;;;;2.08;1.00;;;;;;;19.84;39.90;99862.91;5041561;28;20036;-69
2023/03/25 06:42:52;;;;;;;4.05;1.10;;;;;;;19.86;39.91;99858.22;5037421;28;20041;-69
2023/03/25 06:45:44;;;;;;;2.67;1.50;;;;;;;19.89;39.92;99861.28;5045389;28;20061;-69
2023/03/25 06:48:17;;;;;;;2.15;0.90;;;;;;;19.94;39.77;99867.78;5038468;28;20032;-69
2023/03/25 06:50:44;;;;;;;2.33;0.77;;;;;;;19.92;39.83;99865.31;5040209;28;20075;-69
2023/03/25 06:53:10;;;;;;;2.75;1.40;;;;;;;19.88;39.85;99872.03;5045165;28;20091;-69
2023/03/25 06:55:37;;;;;;;1.83;1.02;;;;;;;19.95;39.78;99864.13;5033340;28;20045;-70
2023/03/25 06:58:03;;;;;;;1.98;1.17;;;;;;;19.86;39.88;99872.25;5041501;28;20072;-69
2023/03/25 07:00:28;;;;;;;2.78;1.38;;;;;;;19.86;39.88;99860.88;5039375;28;20483;-69
2023/03/25 07:02:54;;;;;;;1.63;0.73;;;;;;;19.87;39.97;99860.66;5040547;28;20079;-69
2023/03/25 07:05:20;;;;;;;2.05;1.17;;;;;;;19.82;39.98;99857.81;5044758;28;20883;-69
2023/03/25 07:07:45;;;;;;;1.63;0.85;;;;;;;19.80;39.99;99859.84;5046405;28;20040;-70
2023/03/25 07:10:12;;;;;;;1.90;1.30;;;;;;;19.80;39.99;99869.63;5043202;28;20489;-69
2023/03/25 07:12:38;;;;;;;3.35;1.25;;;;;;;19.74;40.09;99858.00;5045611;28;20119;-69
2023/03/25 07:15:05;;;;;;;2.20;1.15;;;;;;;19.97;39.64;99867.38;5036776;28;20041;-70
2023/03/25 07:17:31;;;;;;;1.90;0.93;;;;;;;20.47;38.78;99869.41;5050480;28;20036;-69
2023/03/25 07:19:56;;;;;;;2.10;1.02;;;;;;;20.81;38.02;99860.31;5044095;28;20049;-69
2023/03/25 07:22:22;;;;;;;2.03;1.27;;;;;;;21.32;37.30;99861.34;5041217;28;20489;-69
2023/03/25 07:24:47;;;;;;;4.63;1.23;;;;;;;21.92;36.16;99859.94;5042454;28;20549;-69
2023/03/25 07:27:14;;;;;;;1.88;1.17;;;;;;;22.05;36.15;99858.19;5044464;28;20041;-69
2023/03/25 07:29:44;;;;;;;2.33;1.30;;;;;;;22.03;36.22;99853.09;5040402;28;20098;-69
2023/03/25 07:32:09;;;;;;;1.58;0.95;;;;;;;22.05;36.46;99858.19;5043611;28;20049;-69
2023/03/25 07:34:35;;;;;;;1.88;1.08;;;;;;;22.03;36.46;99861.84;5041435;28;20049;-69
2023/03/25 07:37:00;;;;;;;1.15;0.93;;;;;;;21.92;36.71;99864.41;5050637;28;20647;-69
2023/03/25 07:39:26;;;;;;;3.08;1.10;;;;;;;21.83;36.74;99861.22;5044979;28;20033;-70
2023/03/25 07:41:52;;;;;;;2.47;0.88;;;;;;;21.76;36.76;99849.84;5052632;28;20061;-70
2023/03/25 07:44:29;;;;;;;2.65;1.38;;;;;;;21.73;36.86;99860.91;5046015;28;20068;-70
2023/03/25 07:46:54;;;;;;;2.25;1.08;;;;;;;21.64;37.28;99867.47;5032544;28;20067;-69
2023/03/25 07:49:20;;;;;;;1.83;0.85;;;;;;;21.58;37.15;99863.84;5038747;28;20037;-69
2023/03/25 07:51:45;;;;;;;1.42;1.13;;;;;;;21.55;37.46;99868.78;5039706;28;20041;-69
2023/03/25 07:54:11;;;;;;;2.22;0.68;;;;;;;21.53;37.54;99882.19;5039687;28;20091;-70
2023/03/25 07:56:37;;;;;;;3.35;0.95;;;;;;;21.50;37.38;99874.69;5035410;28;20041;-69
2023/03/25 07:59:04;;;;;;;2.10;1.35;;;;;;;21.46;37.66;99875.31;5037993;28;20049;-69
2023/03/25 08:01:30;;;;;;;2.22;0.90;;;;;;;21.38;37.49;99879.88;5041814;28;20039;-70
2023/03/25 08:03:55;;;;;;;2.10;0.93;;;;;;;21.40;37.76;99883.09;5042272;28;20045;-69
2023/03/25 08:06:21;;;;;;;3.05;1.30;;;;;;;21.37;37.81;99888.03;5036880;28;20052;-68
2023/03/25 08:08:46;;;;;;;1.65;0.95;;;;;;;21.32;37.71;99886.00;5038290;28;20036;-69
2023/03/25 08:11:12;;;;;;;2.13;0.82;;;;;;;21.28;37.75;99895.38;5038269;28;20036;-69
2023/03/25 08:13:38;;;;;;;1.85;1.10;;;;;;;21.26;37.97;99904.56;5032897;28;20059;-68
2023/03/25 08:16:10;;;;;;;1.55;0.93;;;;;;;21.23;38.05;99895.19;5033591;28;20051;-67
2023/03/25 08:18:36;;;;;;;3.45;1.40;;;;;;;21.10;38.31;99901.34;5031874;28;20570;-68
2023/03/25 08:21:02;;;;;;;2.15;1.10;;;;;;;21.10;38.08;99901.34;5035982;28;20041;-68
2023/03/25 08:23:27;;;;;;;2.78;1.27;;;;;;;21.11;38.03;99900.31;5036135;28;20061;-68
2023/03/25 08:25:53;;;;;;;1.77;1.17;;;;;;;21.10;38.04;99896.06;5035332;28;20052;-68
2023/03/25 08:28:22;;;;;;;2.22;1.23;;;;;;;21.10;38.00;99898.69;5031360;28;20040;-68
2023/03/25 08:30:53;;;;;;;3.40;1.30;;;;;;;21.03;38.46;99887.34;5037076;28;20067;-68
2023/03/25 08:33:25;;;;;;;2.22;1.23;;;;;;;21.05;38.19;99890.59;5035053;28;20049;-68
2023/03/25 08:35:51;;;;;;;3.90;1.38;;;;;;;21.09;38.10;99890.97;5040188;28;20336;-68
2023/03/25 08:38:17;;;;;;;1.45;0.98;;;;;;;21.05;38.10;99893.22;5037103;28;20033;-69
2023/03/25 08:40:43;;;;;;;1.58;1.05;;;;;;;21.04;38.27;99893.44;5033318;28;20045;-69
2023/03/25 08:43:09;;;;;;;1.77;1.20;;;;;;;21.08;38.10;99892.00;5042134;28;20083;-69
2023/03/25 08:45:35;;;;;;;2.00;1.05;;;;;;;20.99;38.24;99887.94;5039051;28;20048;-69
2023/03/25 08:48:02;;;;;;;2.78;1.10;;;;;;;21.01;38.14;99889.38;5035797;28;20029;-68
2023/03/25 08:50:28;;;;;;;4.10;1.20;;;;;;;20.97;38.41;99890.81;5035338;28;20045;-68
2023/03/25 08:52:56;;;;;;;2.15;0.90;;;;;;;20.85;38.69;99896.97;5037419;28;20161;-68
2023/03/25 08:55:23;;;;;;;2.20;0.85;;;;;;;20.84;38.84;99892.69;5043295;28;20072;-68
2023/03/25 08:57:49;;;;;;;2.38;1.23;;;;;;;20.76;38.74;99894.53;5032151;28;20036;-68
2023/03/25 09:00:15;;;;;;;2.28;1.13;;;;;;;20.71;38.86;99902.28;5038505;28;20037;-68
2023/03/25 09:02:41;;;;;;;2.72;1.30;;;;;;;20.86;38.67;99904.69;5039089;28;20098;-68
2023/03/25 09:05:11;;;;;;;2.63;1.13;;;;;;;20.80;38.64;99905.50;5041497;28;20430;-68
2023/03/25 09:07:37;;;;;;;;;;;;;;;20.77;38.81;99904.09;5036640;28;20036;-69
2023/03/25 09:10:04;;;;;;;2.42;1.23;;;;;;;20.82;38.61;99900.81;5035591;28;20576;-68
2023/03/25 09:12:30;;;;;;;4.03;1.10;;;;;;;20.94;38.42;99911.59;5034513;28;20171;-68
2023/03/25 09:14:55;;;;;;;2.20;1.15;;;;;;;20.89;38.51;99912.22;5039110;28;20426;-68
2023/03/25 09:17:21;;;;;;;2.65;1.10;;;;;;;20.83;38.57;99907.78;5040022;28;20068;-68
2023/03/25 09:19:46;;;;;;;2.50;1.08;;;;;;;20.71;38.69;99891.72;5039055;28;20033;-68
2023/03/25 09:22:12;;;;;;;3.50;1.30;;;;;;;20.86;38.78;99901.25;5038321;28;20753;-68
2023/03/25 09:24:39;;;;;;;2.53;1.08;;;;;;;20.82;38.91;99900.81;5036405;28;20045;-68
2023/03/25 09:27:05;;;;;;;4.32;1.23;;;;;;;20.88;38.77;99896.56;5038254;28;20517;-68
2023/03/25 09:29:30;;;;;;;2.17;1.00;;;;;;;20.88;38.58;99905.31;5036965;28;20037;-68
2023/03/25 09:31:57;;;;;;;1.20;1.10;;;;;;;20.69;38.98;99903.53;5037907;28;20040;-68
2023/03/25 09:34:23;;;;;;;3.03;1.20;;;;;;;20.75;38.80;99911.44;5037117;28;20059;-67
2023/03/25 09:36:49;;;;;;;1.50;0.85;;;;;;;20.73;38.94;99910.03;5037679;28;20036;-68
2023/03/25 09:39:14;;;;;;;2.05;1.00;;;;;;;20.60;39.28;99924.09;5039178;28;20044;-68
2023/03/25 09:41:45;;;;;;;2.40;1.38;;;;;;;20.67;39.16;99914.31;5039392;28;20116;-67
2023/03/25 09:44:20;;;;;;;4.25;1.23;;;;;;;20.68;39.03;99921.22;5033411;28;20047;-68
2023/03/25 09:46:47;;;;;;;2.63;1.23;;;;;;;20.62;39.26;99910.66;5039129;28;20128;-68
2023/03/25 09:49:21;;;;;;;1.48;1.15;;;;;;;20.66;39.10;99914.53;5046777;28;20120;-67
2023/03/25 09:51:50;;;;;;;3.80;1.38;;;;;;;20.63;39.08;99915.72;5038011;28;20040;-68
2023/03/25 09:54:30;;;;;;;3.33;1.00;;;;;;;20.64;39.20;99916.53;5043438;28;20036;-68
2023/03/25 09:57:01;;;;;;;4.07;1.42;;;;;;;20.62;39.13;99910.66;5037301;28;20144;-69
2023/03/25 09:59:43;;;;;;;4.50;1.33;;;;;;;20.64;39.27;99914.72;5035088;28;20107;-68
2023/03/25 10:02:20;;;;;;;2.35;1.00;;;;;;;20.59;39.54;99926.94;5041903;28;20043;-68
2023/03/25 10:05:10;;;;;;;4.10;1.35;;;;;;;20.63;39.36;99928.97;5028471;28;20125;-68
2023/03/25 10:08:01;;;;;;;2.63;1.45;;;;;;;20.58;39.59;99923.47;5042403;28;20451;-69
2023/03/25 10:10:38;;;;;;;2.33;1.20;;;;;;;20.60;39.52;99929.38;5035655;28;20037;-68
2023/03/25 10:13:34;;;;;;;4.22;1.38;;;;;;;20.58;39.63;99928.78;5030577;28;20041;-68
2023/03/25 10:16:18;;;;;;;3.38;1.40;;;;;;;20.92;39.03;99932.97;5034106;28;20084;-69
2023/03/25 10:19:01;;;;;;;4.18;1.45;;;;;;;21.26;37.97;99915.16;5037325;28;20065;-68
2023/03/25 10:21:45;;;;;;;3.22;1.40;;;;;;;21.41;38.06;99936.88;5041363;28;20041;-68
2023/03/25 10:24:49;;;;;;;3.13;1.33;;;;;;;21.46;37.93;99938.91;5040000;28;20514;-68
2023/03/25 10:27:24;;;;;;;3.53;1.40;;;;;;;21.44;37.85;99943.59;5041011;28;20048;-68
2023/03/25 10:29:56;;;;;;;2.13;1.17;;;;;;;21.41;38.15;99935.06;5043731;28;20041;-68
2023/03/25 10:32:54;;;;;;;4.10;1.55;;;;;;;21.38;38.09;99937.31;5040693;28;20033;-68
2023/03/25 10:35:24;;;;;;;2.42;1.25;;;;;;;21.33;38.07;99929.16;5037763;28;20048;-68
2023/03/25 10:37:58;;;;;;;2.70;1.27;;;;;;;21.23;38.23;99937.56;5040561;28;20100;-68
2023/03/25 10:40:33;;;;;;;2.30;1.33;;;;;;;21.24;38.55;99939.19;5042770;28;20407;-68
2023/03/25 10:43:22;;;;;;;3.28;1.35;;;;;;;21.22;38.42;99932.47;5038873;28;20052;-68
2023/03/25 10:45:50;;;;;;;2.75;1.15;;;;;;;21.21;38.65;99929.00;5031840;28;20041;-68
2023/03/25 10:48:28;;;;;;;3.85;1.48;;;;;;;21.08;39.00;99921.09;5039091;28;20080;-68
2023/03/25 10:51:10;;;;;;;2.88;1.55;;;;;;;21.09;39.03;99931.50;5036638;28;20033;-68
2023/03/25 10:53:36;;;;;;;4.22;1.77;;;;;;;21.06;39.11;99917.88;5043116;28;20040;-67
2023/03/25 10:56:11;;;;;;;3.13;1.48;;;;;;;20.99;39.22;99944.34;5041053;28;20040;-68
2023/03/25 10:58:39;;;;;;;3.05;1.05;;;;;;;20.98;39.06;99937.41;5047865;28;20051;-68
2023/03/25 11:01:13;;;;;;;2.35;1.38;;;;;;;20.90;39.33;99935.00;5033116;28;20107;-68
2023/03/25 11:03:41;;;;;;;3.65;1.42;;;;;;;20.87;39.83;99950.50;5034933;28;20583;-68
2023/03/25 11:06:21;;;;;;;3.70;1.63;;;;;;;20.84;39.69;99943.78;5041880;28;20034;-68
2023/03/25 11:09:12;;;;;;;2.55;1.38;;;;;;;20.77;40.00;99941.16;5038074;28;20047;-68
2023/03/25 11:11:38;;;;;;;3.63;1.40;;;;;;;20.90;39.75;99939.50;5043385;28;20036;-68
2023/03/25 11:14:04;;;;;;;5.60;1.35;;;;;;;20.87;39.73;99951.31;5039907;28;20040;-68
2023/03/25 11:16:35;;;;;;;3.03;1.35;;;;;;;20.83;39.83;99944.81;5042553;28;20036;-68
2023/03/25 11:19:04;;;;;;;2.17;1.20;;;;;;;20.71;40.09;99941.97;5041941;28;20049;-68
2023/03/25 11:21:32;;;;;;;3.08;1.50;;;;;;;20.78;40.04;99941.94;5042656;28;20151;-68
2023/03/25 11:23:59;;;;;;;4.38;1.35;;;;;;;20.77;40.11;99941.16;5037431;28;21125;-68
2023/03/25 11:26:35;;;;;;;3.08;1.60;;;;;;;20.80;40.16;99943.38;5042121;28;20045;-68
2023/03/25 11:29:19;;;;;;;4.43;1.45;;;;;;;20.56;40.17;99938.75;5037142;28;20033;-68
2023/03/25 11:32:05;;;;;;;5.00;1.67;;;;;;;20.67;40.24;99948.72;5040542;28;20083;-68
2023/03/25 11:34:31;;;;;;;3.63;1.50;;;;;;;20.68;40.47;99952.16;5036853;28;20044;-66
2023/03/25 11:37:03;;;;;;;4.07;1.60;;;;;;;20.81;41.44;99936.25;5039153;28;20556;-70
2023/03/25 11:39:33;;;;;;;3.67;1.92;;;;;;;20.78;41.55;99926.09;5037365;28;21059;-67
2023/03/25 11:42:09;;;;;;;5.40;2.28;;;;;;;21.04;40.63;99941.09;5038457;28;20119;-67
2023/03/25 11:44:35;;;;;;;4.43;1.80;;;;;;;20.95;40.62;99937.84;5037519;28;20037;-67
2023/03/25 11:47:09;;;;;;;5.38;1.27;;;;;;;20.96;40.58;99928.06;5041274;28;20044;-67
2023/03/25 11:49:37;;;;;;;5.40;1.70;;;;;;;20.90;40.60;99919.13;5041014;28;20101;-67
2023/03/25 11:52:11;;;;;;;5.10;1.67;;;;;;;20.80;40.62;99921.38;5040281;28;20457;-67